Map

Track Data

SID SEASON NUMBER BASIN SUBBASIN NAME ISO_TIME NATURE LAT LON WMO_WIND WMO_PRES WMO_AGENCY TRACK_TYPE DIST2LAND LANDFALL IFLAG USA_AGENCY USA_ATCF_ID USA_LAT USA_LON USA_RECORD USA_STATUS USA_WIND USA_PRES USA_SSHS USA_R34_NE USA_R34_SE USA_R34_SW USA_R34_NW USA_R50_NE USA_R50_SE USA_R50_SW USA_R50_NW USA_R64_NE USA_R64_SE USA_R64_SW USA_R64_NW USA_POCI USA_ROCI USA_RMW USA_EYE TOKYO_LAT TOKYO_LON TOKYO_GRADE TOKYO_WIND TOKYO_PRES TOKYO_R50_DIR TOKYO_R50_LONG TOKYO_R50_SHORT TOKYO_R30_DIR TOKYO_R30_LONG TOKYO_R30_SHORT TOKYO_LAND CMA_LAT CMA_LON CMA_CAT CMA_WIND CMA_PRES HKO_LAT HKO_LON HKO_CAT HKO_WIND HKO_PRES NEWDELHI_LAT NEWDELHI_LON NEWDELHI_GRADE NEWDELHI_WIND NEWDELHI_PRES NEWDELHI_CI NEWDELHI_DP NEWDELHI_POCI REUNION_LAT REUNION_LON REUNION_TYPE REUNION_WIND REUNION_PRES REUNION_TNUM REUNION_CI REUNION_RMW REUNION_R34_NE REUNION_R34_SE REUNION_R34_SW REUNION_R34_NW REUNION_R50_NE REUNION_R50_SE REUNION_R50_SW REUNION_R50_NW REUNION_R64_NE REUNION_R64_SE REUNION_R64_SW REUNION_R64_NW BOM_LAT BOM_LON BOM_TYPE BOM_WIND BOM_PRES BOM_TNUM BOM_CI BOM_RMW BOM_R34_NE BOM_R34_SE BOM_R34_SW BOM_R34_NW BOM_R50_NE BOM_R50_SE BOM_R50_SW BOM_R50_NW BOM_R64_NE BOM_R64_SE BOM_R64_SW BOM_R64_NW BOM_ROCI BOM_POCI BOM_EYE BOM_POS_METHOD BOM_PRES_METHOD NADI_LAT NADI_LON NADI_CAT NADI_WIND NADI_PRES WELLINGTON_LAT WELLINGTON_LON WELLINGTON_WIND WELLINGTON_PRES DS824_LAT DS824_LON DS824_STAGE DS824_WIND DS824_PRES TD9636_LAT TD9636_LON TD9636_STAGE TD9636_WIND TD9636_PRES TD9635_LAT TD9635_LON TD9635_WIND TD9635_PRES TD9635_ROCI NEUMANN_LAT NEUMANN_LON NEUMANN_CLASS NEUMANN_WIND NEUMANN_PRES MLC_LAT MLC_LON MLC_CLASS MLC_WIND MLC_PRES USA_GUST BOM_GUST BOM_GUST_PER REUNION_GUST REUNION_GUST_PER USA_SEAHGT USA_SEARAD_NE USA_SEARAD_SE USA_SEARAD_SW USA_SEARAD_NW STORM_SPEED STORM_DIR
1926244N14319 1926 36 NA NA NOT_NAMED 1926-09-01 00:00:00 TS 13.8000 -41.2000 30 hurdat_atl main 1536 1513 O_____________ hurdat_atl AL041926 13.8000 -41.2000 TD 30 -1 7 278
1926244N14319 1926 36 NA NA NOT_NAMED 1926-09-01 03:00:00 TS 13.8501 -41.5600 main 1513 1490 P_____________ AL041926 13.8501 -41.5600 TD 30 -1 7 278
1926244N14319 1926 36 NA NA NOT_NAMED 1926-09-01 06:00:00 TS 13.9000 -41.9000 30 hurdat_atl main 1490 1467 O_____________ hurdat_atl AL041926 13.9000 -41.9000 TD 30 -1 6 279
1926244N14319 1926 36 NA NA NOT_NAMED 1926-09-01 09:00:00 TS 13.9499 -42.2075 main 1467 1453 P_____________ AL041926 13.9499 -42.2075 TD 30 -1 6 280
1926244N14319 1926 36 NA NA NOT_NAMED 1926-09-01 12:00:00 TS 14.0000 -42.5000 30 hurdat_atl main 1453 1431 O_____________ hurdat_atl AL041926 14.0000 -42.5000 TD 30 -1 6 280
1926244N14319 1926 36 NA NA NOT_NAMED 1926-09-01 15:00:00 TS 14.0500 -42.8000 main 1431 1419 P_____________ AL041926 14.0500 -42.8000 TD 30 -1 6 280
1926244N14319 1926 36 NA NA NOT_NAMED 1926-09-01 18:00:00 TS 14.1000 -43.1000 30 hurdat_atl main 1419 1398 O_____________ hurdat_atl AL041926 14.1000 -43.1000 TD 30 -1 6 280
1926244N14319 1926 36 NA NA NOT_NAMED 1926-09-01 21:00:00 TS 14.1500 -43.4000 main 1398 1387 P_____________ AL041926 14.1500 -43.4000 TD 32 -1 6 280
1926244N14319 1926 36 NA NA NOT_NAMED 1926-09-02 00:00:00 TS 14.2000 -43.7000 35 hurdat_atl main 1387 1367 O_____________ hurdat_atl AL041926 14.2000 -43.7000 TS 35 0 6 279
1926244N14319 1926 36 NA NA NOT_NAMED 1926-09-02 03:00:00 TS 14.2425 -44.0000 main 1367 1357 P_____________ AL041926 14.2425 -44.0000 TS 35 0 6 280
1926244N14319 1926 36 NA NA NOT_NAMED 1926-09-02 06:00:00 TS 14.3000 -44.3000 35 hurdat_atl main 1357 1345 O_____________ hurdat_atl AL041926 14.3000 -44.3000 TS 35 0 6 285
1926244N14319 1926 36 NA NA NOT_NAMED 1926-09-02 09:00:00 TS 14.4000 -44.6075 main 1348 1340 P_____________ AL041926 14.4000 -44.6075 TS 37 0 6 289
1926244N14319 1926 36 NA NA NOT_NAMED 1926-09-02 12:00:00 TS 14.5000 -44.9000 40 hurdat_atl main 1340 1319 O_____________ hurdat_atl AL041926 14.5000 -44.9000 TS 40 0 6 286
1926244N14319 1926 36 NA NA NOT_NAMED 1926-09-02 15:00:00 TS 14.5500 -45.1651 main 1319 1315 P_____________ AL041926 14.5500 -45.1651 TS 40 0 5 282
1926244N14319 1926 36 NA NA NOT_NAMED 1926-09-02 18:00:00 TS 14.6000 -45.4000 40 hurdat_atl main 1315 1308 O_____________ hurdat_atl AL041926 14.6000 -45.4000 TS 40 0 5 289
1926244N14319 1926 36 NA NA NOT_NAMED 1926-09-02 21:00:00 TS 14.7000 -45.6075 main 1311 1304 P_____________ AL041926 14.7000 -45.6075 TS 40 0 4 297
1926244N14319 1926 36 NA NA NOT_NAMED 1926-09-03 00:00:00 TS 14.8000 -45.8000 40 hurdat_atl main 1307 1295 O_____________ hurdat_atl AL041926 14.8000 -45.8000 TS 40 0 4 293
1926244N14319 1926 36 NA NA NOT_NAMED 1926-09-03 03:00:00 TS 14.8575 -45.9925 main 1304 1292 P_____________ AL041926 14.8575 -45.9925 TS 42 0 4 285
1926244N14319 1926 36 NA NA NOT_NAMED 1926-09-03 06:00:00 TS 14.9000 -46.2000 45 hurdat_atl main 1292 1280 O_____________ hurdat_atl AL041926 14.9000 -46.2000 TS 45 0 5 282
1926244N14319 1926 36 NA NA NOT_NAMED 1926-09-03 09:00:00 TS 14.9500 -46.4500 main 1290 1273 P_____________ AL041926 14.9500 -46.4500 TS 45 0 5 282
1926244N14319 1926 36 NA NA NOT_NAMED 1926-09-03 12:00:00 TS 15.0000 -46.7000 45 hurdat_atl main 1273 1262 O_____________ hurdat_atl AL041926 15.0000 -46.7000 TS 45 0 4 283
1926244N14319 1926 36 NA NA NOT_NAMED 1926-09-03 15:00:00 TS 15.0499 -46.9000 main 1262 1261 P_____________ AL041926 15.0499 -46.9000 TS 47 0 4 285
1926244N14319 1926 36 NA NA NOT_NAMED 1926-09-03 18:00:00 TS 15.1000 -47.1000 50 hurdat_atl main 1261 1251 O_____________ hurdat_atl AL041926 15.1000 -47.1000 TS 50 0 4 283
1926244N14319 1926 36 NA NA NOT_NAMED 1926-09-03 21:00:00 TS 15.1500 -47.3500 main 1261 1246 P_____________ AL041926 15.1500 -47.3500 TS 50 0 5 282
1926244N14319 1926 36 NA NA NOT_NAMED 1926-09-04 00:00:00 TS 15.2000 -47.6000 50 hurdat_atl main 1246 1236 O_____________ hurdat_atl AL041926 15.2000 -47.6000 TS 50 0 4 282
1926244N14319 1926 36 NA NA NOT_NAMED 1926-09-04 03:00:00 TS 15.2424 -47.7926 main 1236 1236 P_____________ AL041926 15.2424 -47.7926 TS 52 0 4 285
1926244N14319 1926 36 NA NA NOT_NAMED 1926-09-04 06:00:00 TS 15.3000 -48.0000 55 hurdat_atl main 1236 1232 O_____________ hurdat_atl AL041926 15.3000 -48.0000 TS 55 0 5 288
1926244N14319 1926 36 NA NA NOT_NAMED 1926-09-04 09:00:00 TS 15.3925 -48.2775 main 1233 1229 P_____________ AL041926 15.3925 -48.2775 TS 55 0 6 289
1926244N14319 1926 36 NA NA NOT_NAMED 1926-09-04 12:00:00 TS 15.5000 -48.6000 55 hurdat_atl main 1231 1227 O_____________ hurdat_atl AL041926 15.5000 -48.6000 TS 55 0 7 288
1926244N14319 1926 36 NA NA NOT_NAMED 1926-09-04 15:00:00 TS 15.6000 -48.9425 main 1229 1220 P_____________ AL041926 15.6000 -48.9425 TS 57 0 7 287
1926244N14319 1926 36 NA NA NOT_NAMED 1926-09-04 18:00:00 TS 15.7000 -49.3000 60 hurdat_atl main 1220 1211 O_____________ hurdat_atl AL041926 15.7000 -49.3000 TS 60 0 7 286
1926244N14319 1926 36 NA NA NOT_NAMED 1926-09-04 21:00:00 TS 15.7999 -49.6500 main 1212 1208 P_____________ AL041926 15.7999 -49.6500 TS 62 0 7 287
1926244N14319 1926 36 NA NA NOT_NAMED 1926-09-05 00:00:00 TS 15.9000 -50.0000 65 hurdat_atl main 1210 1201 O_____________ hurdat_atl AL041926 15.9000 -50.0000 HU 65 1 7 286
1926244N14319 1926 36 NA NA NOT_NAMED 1926-09-05 03:00:00 TS 15.9924 -50.3426 main 1208 1201 P_____________ AL041926 15.9924 -50.3426 HU 67 1 7 287
1926244N14319 1926 36 NA NA NOT_NAMED 1926-09-05 06:00:00 TS 16.1000 -50.7000 70 hurdat_atl main 1204 1201 O_____________ hurdat_atl AL041926 16.1000 -50.7000 HU 70 1 8 289
1926244N14319 1926 36 NA NA NOT_NAMED 1926-09-05 09:00:00 TS 16.2425 -51.1000 main 1202 1202 P_____________ AL041926 16.2425 -51.1000 HU 70 1 8 291
1926244N14319 1926 36 NA NA NOT_NAMED 1926-09-05 12:00:00 TS 16.4000 -51.5000 70 hurdat_atl main 1209 1187 O_____________ hurdat_atl AL041926 16.4000 -51.5000 HU 70 1 8 292
1926244N14319 1926 36 NA NA NOT_NAMED 1926-09-05 15:00:00 TS 16.5349 -51.8502 main 1178 1164 P_____________ AL041926 16.5349 -51.8502 HU 72 1 7 294
1926244N14319 1926 36 NA NA NOT_NAMED 1926-09-05 18:00:00 TS 16.7000 -52.2000 75 hurdat_atl main 1164 1142 O_____________ hurdat_atl AL041926 16.7000 -52.2000 HU 75 1 8 300
1926244N14319 1926 36 NA NA NOT_NAMED 1926-09-05 21:00:00 TS 16.9425 -52.5999 main 1142 1129 P_____________ AL041926 16.9425 -52.5999 HU 77 1 9 303
1926244N14319 1926 36 NA NA NOT_NAMED 1926-09-06 00:00:00 TS 17.2000 -53.0000 80 hurdat_atl main 1129 1111 O_____________ hurdat_atl AL041926 17.2000 -53.0000 HU 80 1 8 302
1926244N14319 1926 36 NA NA NOT_NAMED 1926-09-06 03:00:00 TS 17.3924 -53.3503 main 1111 1102 P_____________ AL041926 17.3924 -53.3503 HU 80 1 8 301
1926244N14319 1926 36 NA NA NOT_NAMED 1926-09-06 06:00:00 TS 17.6000 -53.7000 80 hurdat_atl main 1102 1095 O_____________ hurdat_atl AL041926 17.6000 -53.7000 HU 80 1 9 305
1926244N14319 1926 36 NA NA NOT_NAMED 1926-09-06 09:00:00 TS 17.8850 -54.0925 main 1096 1089 P_____________ AL041926 17.8850 -54.0925 HU 82 1 10 308
1926244N14319 1926 36 NA NA NOT_NAMED 1926-09-06 12:00:00 TS 18.2000 -54.5000 85 hurdat_atl main 1092 1086 O_____________ hurdat_atl AL041926 18.2000 -54.5000 HU 85 2 10 309
1926244N14319 1926 36 NA NA NOT_NAMED 1926-09-06 15:00:00 TS 18.4924 -54.8927 main 1092 1085 P_____________ AL041926 18.4924 -54.8927 HU 85 2 10 308
1926244N14319 1926 36 NA NA NOT_NAMED 1926-09-06 18:00:00 TS 18.8000 -55.3000 85 hurdat_atl main 1086 1045 O_____________ hurdat_atl AL041926 18.8000 -55.3000 HU 85 2 10 309
1926244N14319 1926 36 NA NA NOT_NAMED 1926-09-06 21:00:00 TS 19.1424 -55.7426 main 1045 996 P_____________ AL041926 19.1424 -55.7426 HU 85 2 11 309
1926244N14319 1926 36 NA NA NOT_NAMED 1926-09-07 00:00:00 TS 19.5000 -56.2000 85 hurdat_atl main 996 958 O_____________ hurdat_atl AL041926 19.5000 -56.2000 HU 85 2 11 310
1926244N14319 1926 36 NA NA NOT_NAMED 1926-09-07 03:00:00 TS 19.8574 -56.6501 main 949 914 P_____________ AL041926 19.8574 -56.6501 HU 87 2 11 310
1926244N14319 1926 36 NA NA NOT_NAMED 1926-09-07 06:00:00 TS 20.2000 -57.1000 90 hurdat_atl main 914 878 O_____________ hurdat_atl AL041926 20.2000 -57.1000 HU 90 2 11 307
1926244N14319 1926 36 NA NA NOT_NAMED 1926-09-07 09:00:00 TS 20.4999 -57.5578 main 870 840 P_____________ AL041926 20.4999 -57.5578 HU 92 2 10 305
1926244N14319 1926 36 NA NA NOT_NAMED 1926-09-07 12:00:00 TS 20.8000 -58.0000 95 hurdat_atl main 840 811 O_____________ hurdat_atl AL041926 20.8000 -58.0000 HU 95 2 10 309
1926244N14319 1926 36 NA NA NOT_NAMED 1926-09-07 15:00:00 TS 21.1424 -58.4151 main 811 790 P_____________ AL041926 21.1424 -58.4151 HU 97 3 10 313
1926244N14319 1926 36 NA NA NOT_NAMED 1926-09-07 18:00:00 TS 21.5000 -58.8000 100 hurdat_atl main 790 772 O_____________ hurdat_atl AL041926 21.5000 -58.8000 HU 100 3 10 315
1926244N14319 1926 36 NA NA NOT_NAMED 1926-09-07 21:00:00 TS 21.8424 -59.1578 main 768 764 P_____________ AL041926 21.8424 -59.1578 HU 102 3 10 317
1926244N14319 1926 36 NA NA NOT_NAMED 1926-09-08 00:00:00 TS 22.2000 -59.5000 105 hurdat_atl main 764 758 O_____________ hurdat_atl AL041926 22.2000 -59.5000 HU 105 3 10 320
1926244N14319 1926 36 NA NA NOT_NAMED 1926-09-08 03:00:00 TS 22.6074 -59.8426 main 764 755 P_____________ AL041926 22.6074 -59.8426 HU 105 3 10 321
1926244N14319 1926 36 NA NA NOT_NAMED 1926-09-08 06:00:00 TS 23.0000 -60.2000 105 957 hurdat_atl main 761 754 O_____________ hurdat_atl AL041926 23.0000 -60.2000 HU 105 957 3 10 316
1926244N14319 1926 36 NA NA NOT_NAMED 1926-09-08 09:00:00 TS 23.3299 -60.5926 main 754 748 P_____________ AL041926 23.3299 -60.5926 HU 105 3 10 309
1926244N14319 1926 36 NA NA NOT_NAMED 1926-09-08 12:00:00 TS 23.6000 -61.0000 105 hurdat_atl main 752 744 O_____________ hurdat_atl AL041926 23.6000 -61.0000 HU 105 3 9 304
1926244N14319 1926 36 NA NA NOT_NAMED 1926-09-08 15:00:00 TS 23.8299 -61.4001 main 744 739 P_____________ AL041926 23.8299 -61.4001 HU 105 3 8 299
1926244N14319 1926 36 NA NA NOT_NAMED 1926-09-08 18:00:00 TS 24.0000 -61.8000 105 hurdat_atl main 739 728 O_____________ hurdat_atl AL041926 24.0000 -61.8000 HU 105 3 8 292
1926244N14319 1926 36 NA NA NOT_NAMED 1926-09-08 21:00:00 TS 24.1224 -62.2001 main 728 719 P_____________ AL041926 24.1224 -62.2001 HU 105 3 8 285
1926244N14319 1926 36 NA NA NOT_NAMED 1926-09-09 00:00:00 TS 24.2000 -62.6000 105 hurdat_atl main 719 706 O_____________ hurdat_atl AL041926 24.2000 -62.6000 HU 105 3 8 280
1926244N14319 1926 36 NA NA NOT_NAMED 1926-09-09 03:00:00 TS 24.2575 -63.0151 main 712 697 P_____________ AL041926 24.2575 -63.0151 HU 105 3 7 278
1926244N14319 1926 36 NA NA NOT_NAMED 1926-09-09 06:00:00 TS 24.3000 -63.4000 105 hurdat_atl main 697 688 O_____________ hurdat_atl AL041926 24.3000 -63.4000 HU 105 3 6 277
1926244N14319 1926 36 NA NA NOT_NAMED 1926-09-09 09:00:00 TS 24.3349 -63.7226 main 688 685 P_____________ AL041926 24.3349 -63.7226 HU 105 3 6 280
1926244N14319 1926 36 NA NA NOT_NAMED 1926-09-09 12:00:00 TS 24.4000 -64.0000 105 hurdat_atl main 691 688 O_____________ hurdat_atl AL041926 24.4000 -64.0000 HU 105 3 5 292
1926244N14319 1926 36 NA NA NOT_NAMED 1926-09-09 15:00:00 TS 24.5349 -64.2575 main 695 695 P_____________ AL041926 24.5349 -64.2575 HU 105 3 5 303
1926244N14319 1926 36 NA NA NOT_NAMED 1926-09-09 18:00:00 TS 24.7000 -64.5000 105 hurdat_atl main 713 711 O_____________ hurdat_atl AL041926 24.7000 -64.5000 HU 105 3 5 305
1926244N14319 1926 36 NA NA NOT_NAMED 1926-09-09 21:00:00 TS 24.8500 -64.7501 main 720 720 P_____________ AL041926 24.8500 -64.7501 HU 105 3 5 303
1926244N14319 1926 36 NA NA NOT_NAMED 1926-09-10 00:00:00 TS 25.0000 -65.0000 105 hurdat_atl main 740 739 O_____________ hurdat_atl AL041926 25.0000 -65.0000 HU 105 3 5 304
1926244N14319 1926 36 NA NA NOT_NAMED 1926-09-10 03:00:00 TS 25.1500 -65.2501 main 749 749 P_____________ AL041926 25.1500 -65.2501 HU 105 3 5 304
1926244N14319 1926 36 NA NA NOT_NAMED 1926-09-10 06:00:00 TS 25.3000 -65.5000 105 hurdat_atl main 771 770 O_____________ hurdat_atl AL041926 25.3000 -65.5000 HU 105 3 6 302
1926244N14319 1926 36 NA NA NOT_NAMED 1926-09-10 09:00:00 TS 25.4425 -65.7725 main 770 770 P_____________ AL041926 25.4425 -65.7725 HU 105 3 5 304
1926244N14319 1926 36 NA NA NOT_NAMED 1926-09-10 12:00:00 TS 25.6000 -66.0000 105 hurdat_atl main 781 781 O_____________ hurdat_atl AL041926 25.6000 -66.0000 HU 105 3 5 316
1926244N14319 1926 36 NA NA NOT_NAMED 1926-09-10 15:00:00 TS 25.7774 -66.1301 main 797 793 P_____________ AL041926 25.7774 -66.1301 HU 105 3 4 336
1926244N14319 1926 36 NA NA NOT_NAMED 1926-09-10 18:00:00 TS 26.0000 -66.2000 105 hurdat_atl main 813 813 O_____________ hurdat_atl AL041926 26.0000 -66.2000 HU 105 3 5 347
1926244N14319 1926 36 NA NA NOT_NAMED 1926-09-10 21:00:00 TS 26.2775 -66.2576 main 839 839 P_____________ AL041926 26.2775 -66.2576 HU 107 3 6 352
1926244N14319 1926 36 NA NA NOT_NAMED 1926-09-11 00:00:00 TS 26.6000 -66.3000 110 hurdat_atl main 868 868 O_____________ hurdat_atl AL041926 26.6000 -66.3000 HU 110 3 7 353
1926244N14319 1926 36 NA NA NOT_NAMED 1926-09-11 03:00:00 TS 26.9425 -66.3500 main 894 894 P_____________ AL041926 26.9425 -66.3500 HU 110 3 7 353
1926244N14319 1926 36 NA NA NOT_NAMED 1926-09-11 06:00:00 TS 27.3000 -66.4000 110 hurdat_atl main 935 935 O_____________ hurdat_atl AL041926 27.3000 -66.4000 HU 110 3 7 353
1926244N14319 1926 36 NA NA NOT_NAMED 1926-09-11 09:00:00 TS 27.6575 -66.4426 main 976 972 P_____________ AL041926 27.6575 -66.4426 HU 110 3 7 353
1926244N14319 1926 36 NA NA NOT_NAMED 1926-09-11 12:00:00 TS 28.0000 -66.5000 110 hurdat_atl main 1003 1003 O_____________ hurdat_atl AL041926 28.0000 -66.5000 HU 110 3 7 349
1926244N14319 1926 36 NA NA NOT_NAMED 1926-09-11 15:00:00 TS 28.3225 -66.5850 main 1022 1022 P_____________ AL041926 28.3225 -66.5850 HU 110 3 6 344
1926244N14319 1926 36 NA NA NOT_NAMED 1926-09-11 18:00:00 TS 28.6000 -66.7000 110 hurdat_atl main 1042 1042 O_____________ hurdat_atl AL041926 28.6000 -66.7000 HU 110 3 6 335
1926244N14319 1926 36 NA NA NOT_NAMED 1926-09-11 21:00:00 TS 28.8225 -66.8425 main 1053 1047 P_____________ AL041926 28.8225 -66.8425 HU 110 3 5 327
1926244N14319 1926 36 NA NA NOT_NAMED 1926-09-12 00:00:00 TS 29.0000 -67.0000 110 hurdat_atl main 1059 1059 O_____________ hurdat_atl AL041926 29.0000 -67.0000 HU 110 3 4 321
1926244N14319 1926 36 NA NA NOT_NAMED 1926-09-12 03:00:00 TS 29.1650 -67.1575 main 1065 1051 P_____________ AL041926 29.1650 -67.1575 HU 110 3 4 319
1926244N14319 1926 36 NA NA NOT_NAMED 1926-09-12 06:00:00 TS 29.3000 -67.3000 110 hurdat_atl main 1051 1036 O_____________ hurdat_atl AL041926 29.3000 -67.3000 HU 110 3 3 317
1926244N14319 1926 36 NA NA NOT_NAMED 1926-09-12 09:00:00 TS 29.4000 -67.4076 main 1036 1021 P_____________ AL041926 29.4000 -67.4076 HU 112 3 3 319
1926244N14319 1926 36 NA NA NOT_NAMED 1926-09-12 12:00:00 TS 29.5000 -67.5000 115 hurdat_atl main 1021 1007 O_____________ hurdat_atl AL041926 29.5000 -67.5000 HU 115 4 3 325
1926244N14319 1926 36 NA NA NOT_NAMED 1926-09-12 15:00:00 TS 29.6500 -67.6075 main 1000 986 P_____________ AL041926 29.6500 -67.6075 HU 115 4 3 330
1926244N14319 1926 36 NA NA NOT_NAMED 1926-09-12 18:00:00 TS 29.8000 -67.7000 115 hurdat_atl main 986 971 O_____________ hurdat_atl AL041926 29.8000 -67.7000 HU 115 4 3 332
1926244N14319 1926 36 NA NA NOT_NAMED 1926-09-12 21:00:00 TS 29.9000 -67.7576 main 971 965 P_____________ AL041926 29.9000 -67.7576 HU 112 3 2 335
1926244N14319 1926 36 NA NA NOT_NAMED 1926-09-13 00:00:00 TS 30.0000 -67.8000 110 hurdat_atl main 965 957 O_____________ hurdat_atl AL041926 30.0000 -67.8000 HU 110 3 3 342
1926244N14319 1926 36 NA NA NOT_NAMED 1926-09-13 03:00:00 TS 30.1500 -67.8500 main 949 935 P_____________ AL041926 30.1500 -67.8500 HU 110 3 3 344
1926244N14319 1926 36 NA NA NOT_NAMED 1926-09-13 06:00:00 TS 30.3000 -67.9000 110 hurdat_atl main 935 927 O_____________ hurdat_atl AL041926 30.3000 -67.9000 HU 110 3 3 342
1926244N14319 1926 36 NA NA NOT_NAMED 1926-09-13 09:00:00 TS 30.4075 -67.9500 main 920 913 P_____________ AL041926 30.4075 -67.9500 HU 107 3 2 335
1926244N14319 1926 36 NA NA NOT_NAMED 1926-09-13 12:00:00 TS 30.5000 -68.0000 105 hurdat_atl main 913 905 O_____________ hurdat_atl AL041926 30.5000 -68.0000 HU 105 3 2 335
1926244N14319 1926 36 NA NA NOT_NAMED 1926-09-13 15:00:00 TS 30.6000 -68.0500 main 898 891 P_____________ AL041926 30.6000 -68.0500 HU 105 3 2 335
1926244N14319 1926 36 NA NA NOT_NAMED 1926-09-13 18:00:00 TS 30.7000 -68.1000 105 hurdat_atl main 891 883 O_____________ hurdat_atl AL041926 30.7000 -68.1000 HU 105 3 2 335
1926244N14319 1926 36 NA NA NOT_NAMED 1926-09-13 21:00:00 TS 30.8000 -68.1500 main 876 869 P_____________ AL041926 30.8000 -68.1500 HU 102 3 2 335
1926244N14319 1926 36 NA NA NOT_NAMED 1926-09-14 00:00:00 TS 30.9000 -68.2000 100 hurdat_atl main 869 862 O_____________ hurdat_atl AL041926 30.9000 -68.2000 HU 100 3 2 337
1926244N14319 1926 36 NA NA NOT_NAMED 1926-09-14 03:00:00 TS 31.0000 -68.2425 main 862 847 P_____________ AL041926 31.0000 -68.2425 HU 100 3 2 335
1926244N14319 1926 36 NA NA NOT_NAMED 1926-09-14 06:00:00 TS 31.1000 -68.3000 100 hurdat_atl main 847 833 O_____________ hurdat_atl AL041926 31.1000 -68.3000 HU 100 3 2 330
1926244N14319 1926 36 NA NA NOT_NAMED 1926-09-14 09:00:00 TS 31.1999 -68.3701 main 833 818 P_____________ AL041926 31.1999 -68.3701 HU 97 3 3 319
1926244N14319 1926 36 NA NA NOT_NAMED 1926-09-14 12:00:00 TS 31.3000 -68.5000 95 hurdat_atl main 818 796 O_____________ hurdat_atl AL041926 31.3000 -68.5000 HU 95 2 4 304
1926244N14319 1926 36 NA NA NOT_NAMED 1926-09-14 15:00:00 TS 31.4000 -68.7125 main 796 768 P_____________ AL041926 31.4000 -68.7125 HU 95 2 5 295
1926244N14319 1926 36 NA NA NOT_NAMED 1926-09-14 18:00:00 TS 31.5000 -69.0000 95 hurdat_atl main 768 739 O_____________ hurdat_atl AL041926 31.5000 -69.0000 HU 95 2 6 290
1926244N14319 1926 36 NA NA NOT_NAMED 1926-09-14 21:00:00 TS 31.5925 -69.3351 main 739 703 P_____________ AL041926 31.5925 -69.3351 HU 95 2 6 289
1926244N14319 1926 36 NA NA NOT_NAMED 1926-09-15 00:00:00 TS 31.7000 -69.7000 95 hurdat_atl main 703 675 O_____________ hurdat_atl AL041926 31.7000 -69.7000 HU 95 2 7 291
1926244N14319 1926 36 NA NA NOT_NAMED 1926-09-15 03:00:00 TS 31.8275 -70.0576 main 668 632 P_____________ AL041926 31.8275 -70.0576 HU 95 2 7 297
1926244N14319 1926 36 NA NA NOT_NAMED 1926-09-15 06:00:00 TS 32.0000 -70.4000 95 hurdat_atl main 632 596 O_____________ hurdat_atl AL041926 32.0000 -70.4000 HU 95 2 7 304
1926244N14319 1926 36 NA NA NOT_NAMED 1926-09-15 09:00:00 TS 32.2200 -70.7374 main 596 553 P_____________ AL041926 32.2200 -70.7374 HU 95 2 7 315
1926244N14319 1926 36 NA NA NOT_NAMED 1926-09-15 12:00:00 TS 32.5000 -71.0000 95 hurdat_atl main 553 523 O_____________ hurdat_atl AL041926 32.5000 -71.0000 HU 95 2 7 331
1926244N14319 1926 36 NA NA NOT_NAMED 1926-09-15 15:00:00 TS 32.8274 -71.1377 main 523 488 P_____________ AL041926 32.8274 -71.1377 HU 95 2 7 347
1926244N14319 1926 36 NA NA NOT_NAMED 1926-09-15 18:00:00 TS 33.2000 -71.2000 95 hurdat_atl main 488 454 O_____________ hurdat_atl AL041926 33.2000 -71.2000 HU 95 2 8 351
1926244N14319 1926 36 NA NA NOT_NAMED 1926-09-15 21:00:00 TS 33.5850 -71.2724 main 454 431 P_____________ AL041926 33.5850 -71.2724 HU 92 2 8 354
1926244N14319 1926 36 NA NA NOT_NAMED 1926-09-16 00:00:00 TS 34.0000 -71.3000 90 hurdat_atl main 431 411 O_____________ hurdat_atl AL041926 34.0000 -71.3000 HU 90 2 9 359
1926244N14319 1926 36 NA NA NOT_NAMED 1926-09-16 03:00:00 TS 34.4425 -71.2799 main 411 401 P_____________ AL041926 34.4425 -71.2799 HU 90 2 9 5
1926244N14319 1926 36 NA NA NOT_NAMED 1926-09-16 06:00:00 TS 34.9000 -71.2000 90 hurdat_atl main 401 392 O_____________ hurdat_atl AL041926 34.9000 -71.2000 HU 90 2 9 8
1926244N14319 1926 36 NA NA NOT_NAMED 1926-09-16 09:00:00 TS 35.3419 -71.1386 main 401 396 P_____________ AL041926 35.3419 -71.1386 HU 90 2 9 15
1926244N14319 1926 36 NA NA NOT_NAMED 1926-09-16 12:00:00 TS 35.8000 -70.9000 90 hurdat_atl main 413 413 O_____________ hurdat_atl AL041926 35.8000 -70.9000 HU 90 2 11 34
1926244N14319 1926 36 NA NA NOT_NAMED 1926-09-16 15:00:00 TS 36.2926 -70.3477 main 469 469 P_____________ AL041926 36.2926 -70.3477 HU 90 2 14 46
1926244N14319 1926 36 NA NA NOT_NAMED 1926-09-16 18:00:00 TS 36.8000 -69.6000 90 hurdat_atl main 508 492 O_____________ hurdat_atl AL041926 36.8000 -69.6000 HU 90 2 16 50
1926244N14319 1926 36 NA NA NOT_NAMED 1926-09-16 21:00:00 TS 37.2997 -68.8292 main 494 466 P_____________ AL041926 37.2997 -68.8292 HU 90 2 16 52
1926244N14319 1926 36 NA NA NOT_NAMED 1926-09-17 00:00:00 TS 37.8000 -68.0000 90 hurdat_atl main 466 442 O_____________ hurdat_atl AL041926 37.8000 -68.0000 HU 90 2 17 52
1926244N14319 1926 36 NA NA NOT_NAMED 1926-09-17 03:00:00 TS 38.3144 -67.1644 main 446 442 P_____________ AL041926 38.3144 -67.1644 HU 90 2 17 53
1926244N14319 1926 36 NA NA NOT_NAMED 1926-09-17 06:00:00 TS 38.8000 -66.3000 90 hurdat_atl main 449 447 O_____________ hurdat_atl AL041926 38.8000 -66.3000 HU 90 2 17 56
1926244N14319 1926 36 NA NA NOT_NAMED 1926-09-17 09:00:00 TS 39.2524 -65.3853 main 467 437 P_____________ AL041926 39.2524 -65.3853 HU 90 2 16 60
1926244N14319 1926 36 NA NA NOT_NAMED 1926-09-17 12:00:00 TS 39.6000 -64.5000 90 hurdat_atl main 438 425 O_____________ hurdat_atl AL041926 39.6000 -64.5000 HU 90 2 14 66
1926244N14319 1926 36 NA NA NOT_NAMED 1926-09-17 15:00:00 TS 39.8243 -63.7119 main 432 427 P_____________ AL041926 39.8243 -63.7119 HU 90 2 12 75
1926244N14319 1926 36 NA NA NOT_NAMED 1926-09-17 18:00:00 TS 39.9000 -63.0000 90 hurdat_atl main 443 443 O_____________ hurdat_atl AL041926 39.9000 -63.0000 HU 90 2 11 89
1926244N14319 1926 36 NA NA NOT_NAMED 1926-09-17 21:00:00 TS 39.8447 -62.3117 main 480 480 P_____________ AL041926 39.8447 -62.3117 HU 87 2 10 101
1926244N14319 1926 36 NA NA NOT_NAMED 1926-09-18 00:00:00 TS 39.7000 -61.7000 85 hurdat_atl main 517 517 O_____________ hurdat_atl AL041926 39.7000 -61.7000 HU 85 2 9 107
1926244N14319 1926 36 NA NA NOT_NAMED 1926-09-18 03:00:00 TS 39.5649 -61.1325 main 556 556 P_____________ AL041926 39.5649 -61.1325 HU 85 2 8 111
1926244N14319 1926 36 NA NA NOT_NAMED 1926-09-18 06:00:00 TS 39.4000 -60.7000 85 hurdat_atl main 594 594 O_____________ hurdat_atl AL041926 39.4000 -60.7000 HU 85 2 6 125
1926244N14319 1926 36 NA NA NOT_NAMED 1926-09-18 09:00:00 TS 39.1922 -60.4477 main 628 628 P_____________ AL041926 39.1922 -60.4477 HU 85 2 5 142
1926244N14319 1926 36 NA NA NOT_NAMED 1926-09-18 12:00:00 TS 39.0000 -60.3000 85 hurdat_atl main 651 651 O_____________ hurdat_atl AL041926 39.0000 -60.3000 HU 85 2 4 141
1926244N14319 1926 36 NA NA NOT_NAMED 1926-09-18 15:00:00 TS 38.8775 -60.1126 main 670 670 P_____________ AL041926 38.8775 -60.1126 HU 85 2 3 130
1926244N14319 1926 36 NA NA NOT_NAMED 1926-09-18 18:00:00 TS 38.8000 -60.0000 85 hurdat_atl main 684 684 O_____________ hurdat_atl AL041926 38.8000 -60.0000 HU 85 2 2 146
1926244N14319 1926 36 NA NA NOT_NAMED 1926-09-18 21:00:00 TS 38.7424 -59.9975 main 693 688 P_____________ AL041926 38.7424 -59.9975 HU 82 1 1 217
1926244N14319 1926 36 NA NA NOT_NAMED 1926-09-19 00:00:00 TS 38.7000 -60.1000 80 hurdat_atl main 688 677 O_____________ hurdat_atl AL041926 38.7000 -60.1000 HU 80 1 2 246
1926244N14319 1926 36 NA NA NOT_NAMED 1926-09-19 03:00:00 TS 38.6500 -60.2700 main 677 676 P_____________ AL041926 38.6500 -60.2700 HU 80 1 3 252
1926244N14319 1926 36 NA NA NOT_NAMED 1926-09-19 06:00:00 TS 38.6000 -60.5000 80 hurdat_atl main 676 666 O_____________ hurdat_atl AL041926 38.6000 -60.5000 HU 80 1 4 256
1926244N14319 1926 36 NA NA NOT_NAMED 1926-09-19 09:00:00 TS 38.5574 -60.7349 main 666 662 P_____________ AL041926 38.5574 -60.7349 HU 77 1 4 256
1926244N14319 1926 36 NA NA NOT_NAMED 1926-09-19 12:00:00 TS 38.5000 -61.0000 75 hurdat_atl main 662 653 O_____________ hurdat_atl AL041926 38.5000 -61.0000 HU 75 1 5 252
1926244N14319 1926 36 NA NA NOT_NAMED 1926-09-19 15:00:00 TS 38.4150 -61.2924 main 658 650 P_____________ AL041926 38.4150 -61.2924 HU 75 1 5 247
1926244N14319 1926 36 NA NA NOT_NAMED 1926-09-19 18:00:00 TS 38.3000 -61.6000 75 hurdat_atl main 656 652 O_____________ hurdat_atl AL041926 38.3000 -61.6000 HU 75 1 5 242
1926244N14319 1926 36 NA NA NOT_NAMED 1926-09-19 21:00:00 TS 38.1575 -61.9075 main 654 654 P_____________ AL041926 38.1575 -61.9075 HU 72 1 6 237
1926244N14319 1926 36 NA NA NOT_NAMED 1926-09-20 00:00:00 TS 38.0000 -62.2000 70 hurdat_atl main 664 661 O_____________ hurdat_atl AL041926 38.0000 -62.2000 HU 70 1 5 235
1926244N14319 1926 36 NA NA NOT_NAMED 1926-09-20 03:00:00 TS 37.8425 -62.4725 main 676 673 P_____________ AL041926 37.8425 -62.4725 HU 70 1 5 233
1926244N14319 1926 36 NA NA NOT_NAMED 1926-09-20 06:00:00 TS 37.7000 -62.7000 70 hurdat_atl main 681 678 O_____________ hurdat_atl AL041926 37.7000 -62.7000 HU 70 1 4 232
1926244N14319 1926 36 NA NA NOT_NAMED 1926-09-20 09:00:00 TS 37.5775 -62.9025 main 686 686 P_____________ AL041926 37.5775 -62.9025 HU 67 1 3 230
1926244N14319 1926 36 NA NA NOT_NAMED 1926-09-20 12:00:00 TS 37.5000 -63.0000 65 hurdat_atl main 695 695 O_____________ hurdat_atl AL041926 37.5000 -63.0000 HU 65 1 1 215
1926244N14319 1926 36 NA NA NOT_NAMED 1926-09-20 15:00:00 TS 37.4696 -62.9972 main 695 695 P_____________ AL041926 37.4696 -62.9972 HU 65 1 2 90
1926244N14319 1926 36 NA NA NOT_NAMED 1926-09-20 18:00:00 TS 37.5000 -62.8000 65 hurdat_atl main 700 697 O_____________ hurdat_atl AL041926 37.5000 -62.8000 HU 65 1 5 78
1926244N14319 1926 36 NA NA NOT_NAMED 1926-09-20 21:00:00 TS 37.5777 -62.3675 main 700 700 P_____________ AL041926 37.5777 -62.3675 HU 62 0 8 76
1926244N14319 1926 36 NA NA NOT_NAMED 1926-09-21 00:00:00 TS 37.7000 -61.8000 60 hurdat_atl main 709 706 O_____________ hurdat_atl AL041926 37.7000 -61.8000 TS 60 0 9 74
1926244N14319 1926 36 NA NA NOT_NAMED 1926-09-21 03:00:00 TS 37.8272 -61.2646 main 717 711 P_____________ AL041926 37.8272 -61.2646 TS 60 0 9 71
1926244N14319 1926 36 NA NA NOT_NAMED 1926-09-21 06:00:00 TS 38.0000 -60.7000 60 hurdat_atl main 723 723 O_____________ hurdat_atl AL041926 38.0000 -60.7000 TS 60 0 10 68
1926244N14319 1926 36 NA NA NOT_NAMED 1926-09-21 09:00:00 TS 38.1974 -60.0992 main 733 728 P_____________ AL041926 38.1974 -60.0992 TS 60 0 11 62
1926244N14319 1926 36 NA NA NOT_NAMED 1926-09-21 12:00:00 TS 38.5000 -59.5000 60 hurdat_atl main 736 716 O_____________ hurdat_atl AL041926 38.5000 -59.5000 TS 60 0 12 50
1926244N14319 1926 36 NA NA NOT_NAMED 1926-09-21 15:00:00 TS 38.9472 -58.9421 main 720 671 P_____________ AL041926 38.9472 -58.9421 TS 60 0 13 41
1926244N14319 1926 36 NA NA NOT_NAMED 1926-09-21 18:00:00 TS 39.5000 -58.4000 60 hurdat_atl main 671 634 O_____________ hurdat_atl AL041926 39.5000 -58.4000 TS 60 0 14 37
1926244N14319 1926 36 NA NA NOT_NAMED 1926-09-21 21:00:00 TS 40.0773 -57.8492 main 627 587 P_____________ AL041926 40.0773 -57.8492 TS 62 0 15 35
1926244N14319 1926 36 NA NA NOT_NAMED 1926-09-22 00:00:00 ET 40.7000 -57.3000 65 hurdat_atl main 587 555 O_____________ hurdat_atl AL041926 40.7000 -57.3000 EX 65 -4 15 34
1926244N14319 1926 36 NA NA NOT_NAMED 1926-09-22 03:00:00 ET 41.3348 -56.7416 main 560 522 P_____________ AL041926 41.3348 -56.7416 EX 67 -4 15 32
1926244N14319 1926 36 NA NA NOT_NAMED 1926-09-22 06:00:00 ET 42.0000 -56.2000 70 976 hurdat_atl main 522 455 O_____________ hurdat_atl AL041926 42.0000 -56.2000 EX 70 976 -4 16 30
1926244N14319 1926 36 NA NA NOT_NAMED 1926-09-22 09:00:00 ET 42.6999 -55.6698 main 455 377 P_____________ AL041926 42.6999 -55.6698 EX 70 -4 16 28
1926244N14319 1926 36 NA NA NOT_NAMED 1926-09-22 12:00:00 ET 43.4000 -55.2000 70 hurdat_atl main 377 303 O_____________ hurdat_atl AL041926 43.4000 -55.2000 EX 70 -4 15 25
1926244N14319 1926 36 NA NA NOT_NAMED 1926-09-22 15:00:00 ET 44.0573 -54.8041 main 293 222 P_____________ AL041926 44.0573 -54.8041 EX 70 -4 14 21
1926244N14319 1926 36 NA NA NOT_NAMED 1926-09-22 18:00:00 ET 44.7000 -54.5000 70 hurdat_atl main 222 154 O_____________ hurdat_atl AL041926 44.7000 -54.5000 EX 70 -4 13 16
1926244N14319 1926 36 NA NA NOT_NAMED 1926-09-22 21:00:00 ET 45.3498 -54.2690 main 154 76 P_____________ AL041926 45.3498 -54.2690 EX 62 -4 13 12
1926244N14319 1926 36 NA NA NOT_NAMED 1926-09-23 00:00:00 ET 46.0000 -54.1000 55 hurdat_atl main 76 23 O_____________ hurdat_atl AL041926 46.0000 -54.1000 EX 55 -4 13 9
1926244N14319 1926 36 NA NA NOT_NAMED 1926-09-23 03:00:00 ET 46.6348 -53.9633 main 23 0 P_____________ AL041926 46.6348 -53.9633 EX 52 -4 13 9
1926244N14319 1926 36 NA NA NOT_NAMED 1926-09-23 06:00:00 ET 47.3000 -53.8000 50 hurdat_atl main 0 0 O_____________ hurdat_atl AL041926 47.3000 -53.8000 EX 50 -4 14 12
1926244N14319 1926 36 NA NA NOT_NAMED 1926-09-23 09:00:00 ET 48.0050 -53.5364 main 14 0 P_____________ AL041926 48.0050 -53.5364 EX 50 -4 16 15
1926244N14319 1926 36 NA NA NOT_NAMED 1926-09-23 12:00:00 ET 48.8000 -53.2000 50 hurdat_atl main 22 22 O_____________ hurdat_atl AL041926 48.8000 -53.2000 EX 50 -4 18 15
1926244N14319 1926 36 NA NA NOT_NAMED 1926-09-23 15:00:00 ET 49.6974 -52.8283 main 67 67 P_____________ AL041926 49.6974 -52.8283 EX 50 -4 20 15
1926244N14319 1926 36 NA NA NOT_NAMED 1926-09-23 18:00:00 ET 50.7000 -52.4000 50 hurdat_atl main 173 173 O_____________ hurdat_atl AL041926 50.7000 -52.4000 EX 50 -4 21 16
1926244N14319 1926 36 NA NA NOT_NAMED 1926-09-23 21:00:00 ET 51.7551 -51.9135 main 249 249 P_____________ AL041926 51.7551 -51.9135 EX 50 -4 23 16
1926244N14319 1926 36 NA NA NOT_NAMED 1926-09-24 00:00:00 ET 52.9000 -51.4000 50 hurdat_atl main 287 287 O_____________ hurdat_atl AL041926 52.9000 -51.4000 EX 50 -4 24 14
1926244N14319 1926 36 NA NA NOT_NAMED 1926-09-24 03:00:00 ET 54.1047 -50.9104 main 332 332 P_____________ AL041926 54.1047 -50.9104 EX 47 -4 26 13
1926244N14319 1926 36 NA NA NOT_NAMED 1926-09-24 06:00:00 ET 55.4000 -50.4000 45 hurdat_atl main 411 411 O_____________ hurdat_atl AL041926 55.4000 -50.4000 EX 45 -4 27 13
1926244N14319 1926 36 NA NA NOT_NAMED 1926-09-24 09:00:00 ET 56.7781 -49.8309 main 451 306 P_____________ AL041926 56.7781 -49.8309 EX 45 -4 29 13
1926244N14319 1926 36 NA NA NOT_NAMED 1926-09-24 12:00:00 ET 58.2000 -49.2000 45 hurdat_atl main 295 O_____________ hurdat_atl AL041926 58.2000 -49.2000 EX 45 -4 29 13

About IBTrACS Database

This database is a web-friendly format of International Best Track Archive for Climate Stewardship (IBTrACS), a global best track data archive curated by NOAA dating back to 1842.

Updated: 2021-12-01